KMSS/MSS METAR and TAF weather

Enter ICAO airport designator
Station Type Date Time Source
KMSS METAR 2019/02/22 23:53 UTC NOAA

KMSS 222353Z AUTO 22005KT 10SM CLR M04/M09 A3046 RMK AO2 SLP323 T10391089 11006 21050 53003


Station Type Date Time Source
KMSS Decoded METAR 2019/02/22 23:53 UTC NOAA

MASSENA INTERNATIONAL -RICHARDS FLD, NY, United States (KMSS) 44-56N 074-51W 66M
Feb 22, 2019 - 06:53 PM EST / 2019.02.22 2353 UTC
Wind: from the SW (220 degrees) at 6 MPH (5 KT):0
Visibility: 10 mile(s):0
Sky conditions: clear
Temperature: 25.0 F (-3.9 C)
Windchill: 17 F (-8 C):1
Dew Point: 16.0 F (-8.9 C)
Relative Humidity: 68%
Pressure (altimeter): 30.46 in. Hg (1031 hPa)
Pressure tendency: 0.01 inches (0.3 hPa) higher than three hours ago
ob: KMSS 222353Z AUTO 22005KT 10SM CLR M04/M09 A3046 RMK AO2 SLP323 T10391089 11006 21050 53003
cycle: 0

Station Type Date Time Source
KMSS TAF 2019/02/22 18:22 UTC NOAA

TAF KMSS 221720Z 2218/2318 29008KT P6SM SCT040
FM231000 00000KT P6SM BKN028


Example: see airport list